sensor_id;sensor_type;location;lat;lon;timestamp;pressure;altitude;pressure_sealevel;temperature;humidity
70198;BME280;57582;-34.876;138.628;2024-03-02T00:00:12;101355;;;23.35;46.08
70198;BME280;57582;-34.876;138.628;2024-03-02T00:03:11;101359;;;23.51;45.68
70198;BME280;57582;-34.876;138.628;2024-03-02T00:06:11;101356;;;23.76;45.05
70198;BME280;57582;-34.876;138.628;2024-03-02T00:09:11;101342;;;23.99;44.83
70198;BME280;57582;-34.876;138.628;2024-03-02T00:12:15;101348;;;23.87;42.74
70198;BME280;57582;-34.876;138.628;2024-03-02T00:18:12;101343;;;23.98;43.19
70198;BME280;57582;-34.876;138.628;2024-03-02T00:21:11;101344;;;24.05;42.55
70198;BME280;57582;-34.876;138.628;2024-03-02T00:24:20;101336;;;24.23;42.45
70198;BME280;57582;-34.876;138.628;2024-03-02T00:27:12;101341;;;24.36;42.13
70198;BME280;57582;-34.876;138.628;2024-03-02T00:33:11;101345;;;24.48;41.90
70198;BME280;57582;-34.876;138.628;2024-03-02T00:36:14;101343;;;24.02;42.03
70198;BME280;57582;-34.876;138.628;2024-03-02T00:39:12;101338;;;24.14;42.42
70198;BME280;57582;-34.876;138.628;2024-03-02T00:42:11;101343;;;23.94;42.82
70198;BME280;57582;-34.876;138.628;2024-03-02T00:45:11;101334;;;24.40;41.62
70198;BME280;57582;-34.876;138.628;2024-03-02T00:48:13;101340;;;24.59;41.73
70198;BME280;57582;-34.876;138.628;2024-03-02T00:51:11;101338;;;24.84;41.04
70198;BME280;57582;-34.876;138.628;2024-03-02T00:54:11;101331;;;24.85;40.59
70198;BME280;57582;-34.876;138.628;2024-03-02T00:57:11;101331;;;24.83;39.22
70198;BME280;57582;-34.876;138.628;2024-03-02T01:00:12;101328;;;25.01;39.80
70198;BME280;57582;-34.876;138.628;2024-03-02T01:03:11;101326;;;24.57;40.98
70198;BME280;57582;-34.876;138.628;2024-03-02T01:06:11;101320;;;24.93;41.16
70198;BME280;57582;-34.876;138.628;2024-03-02T01:09:11;101322;;;25.21;39.24
70198;BME280;57582;-34.876;138.628;2024-03-02T01:12:14;101333;;;25.41;38.79
70198;BME280;57582;-34.876;138.628;2024-03-02T01:15:11;101324;;;25.65;37.56
70198;BME280;57582;-34.876;138.628;2024-03-02T01:18:11;101326;;;25.82;37.81
70198;BME280;57582;-34.876;138.628;2024-03-02T01:21:12;101319;;;25.96;36.73
70198;BME280;57582;-34.876;138.628;2024-03-02T01:24:12;101312;;;25.93;36.91
70198;BME280;57582;-34.876;138.628;2024-03-02T01:27:11;101306;;;26.11;38.19
70198;BME280;57582;-34.876;138.628;2024-03-02T01:30:11;101301;;;26.12;38.14
70198;BME280;57582;-34.876;138.628;2024-03-02T01:33:11;101291;;;26.42;37.31
70198;BME280;57582;-34.876;138.628;2024-03-02T01:36:12;101284;;;26.40;37.13
70198;BME280;57582;-34.876;138.628;2024-03-02T01:39:11;101277;;;26.37;36.89
70198;BME280;57582;-34.876;138.628;2024-03-02T01:42:11;101281;;;26.59;37.23
70198;BME280;57582;-34.876;138.628;2024-03-02T01:45:11;101278;;;26.82;36.58
70198;BME280;57582;-34.876;138.628;2024-03-02T01:48:13;101282;;;26.30;38.48
70198;BME280;57582;-34.876;138.628;2024-03-02T01:51:11;101287;;;25.76;38.22
70198;BME280;57582;-34.876;138.628;2024-03-02T01:54:11;101282;;;25.76;37.77
70198;BME280;57582;-34.876;138.628;2024-03-02T01:57:11;101282;;;25.83;38.15
70198;BME280;57582;-34.876;138.628;2024-03-02T02:00:12;101275;;;25.91;39.48
70198;BME280;57582;-34.876;138.628;2024-03-02T02:03:11;101276;;;26.53;37.95
70198;BME280;57582;-34.876;138.628;2024-03-02T02:06:11;101272;;;26.86;36.85
70198;BME280;57582;-34.876;138.628;2024-03-02T02:09:11;101265;;;27.13;36.86
70198;BME280;57582;-34.876;138.628;2024-03-02T02:12:12;101259;;;27.31;35.75
70198;BME280;57582;-34.876;138.628;2024-03-02T02:18:11;101261;;;27.68;34.79
70198;BME280;57582;-34.876;138.628;2024-03-02T02:21:11;101258;;;27.57;34.07
70198;BME280;57582;-34.876;138.628;2024-03-02T02:24:13;101254;;;27.67;34.16
70198;BME280;57582;-34.876;138.628;2024-03-02T02:27:11;101260;;;27.77;34.02
70198;BME280;57582;-34.876;138.628;2024-03-02T02:30:11;101249;;;26.90;34.60
70198;BME280;57582;-34.876;138.628;2024-03-02T02:33:11;101256;;;26.99;35.57
70198;BME280;57582;-34.876;138.628;2024-03-02T02:36:12;101263;;;27.48;35.35
70198;BME280;57582;-34.876;138.628;2024-03-02T02:39:13;101251;;;27.31;35.71
70198;BME280;57582;-34.876;138.628;2024-03-02T02:42:11;101247;;;27.52;35.67
70198;BME280;57582;-34.876;138.628;2024-03-02T02:45:11;101238;;;27.70;35.91
70198;BME280;57582;-34.876;138.628;2024-03-02T02:48:12;101229;;;28.05;35.21
70198;BME280;57582;-34.876;138.628;2024-03-02T02:51:11;101229;;;28.42;34.00
70198;BME280;57582;-34.876;138.628;2024-03-02T02:54:11;101232;;;27.80;34.04
70198;BME280;57582;-34.876;138.628;2024-03-02T02:57:11;101236;;;27.24;35.02
70198;BME280;57582;-34.876;138.628;2024-03-02T03:00:14;101234;;;26.52;35.80
70198;BME280;57582;-34.876;138.628;2024-03-02T03:03:11;101226;;;27.10;37.12
70198;BME280;57582;-34.876;138.628;2024-03-02T03:06:11;101233;;;27.81;35.32
70198;BME280;57582;-34.876;138.628;2024-03-02T03:09:11;101213;;;28.24;34.41
70198;BME280;57582;-34.876;138.628;2024-03-02T03:12:12;101210;;;28.12;34.10
70198;BME280;57582;-34.876;138.628;2024-03-02T03:15:11;101198;;;28.57;34.72
70198;BME280;57582;-34.876;138.628;2024-03-02T03:18:11;101207;;;28.55;31.81
70198;BME280;57582;-34.876;138.628;2024-03-02T03:21:11;101201;;;28.63;32.73
70198;BME280;57582;-34.876;138.628;2024-03-02T03:24:14;101199;;;28.64;32.28
70198;BME280;57582;-34.876;138.628;2024-03-02T03:27:11;101192;;;28.90;30.97
70198;BME280;57582;-34.876;138.628;2024-03-02T03:30:11;101184;;;29.12;32.25
70198;BME280;57582;-34.876;138.628;2024-03-02T03:33:11;101183;;;29.31;30.17
70198;BME280;57582;-34.876;138.628;2024-03-02T03:36:12;101183;;;29.21;31.44
70198;BME280;57582;-34.876;138.628;2024-03-02T03:39:11;101177;;;29.41;31.01
70198;BME280;57582;-34.876;138.628;2024-03-02T03:42:11;101170;;;29.56;30.40
70198;BME280;57582;-34.876;138.628;2024-03-02T03:45:11;101172;;;29.75;30.19
70198;BME280;57582;-34.876;138.628;2024-03-02T03:48:12;101171;;;30.01;29.66
70198;BME280;57582;-34.876;138.628;2024-03-02T03:51:11;101167;;;30.10;29.66
70198;BME280;57582;-34.876;138.628;2024-03-02T03:54:11;101165;;;29.19;29.97
70198;BME280;57582;-34.876;138.628;2024-03-02T03:57:11;101160;;;28.61;32.42
70198;BME280;57582;-34.876;138.628;2024-03-02T04:00:14;101166;;;29.13;32.54
70198;BME280;57582;-34.876;138.628;2024-03-02T04:03:11;101171;;;29.45;31.20
70198;BME280;57582;-34.876;138.628;2024-03-02T04:06:11;101163;;;29.66;32.22
70198;BME280;57582;-34.876;138.628;2024-03-02T04:09:11;101164;;;29.74;33.18
70198;BME280;57582;-34.876;138.628;2024-03-02T04:12:12;101170;;;29.67;34.55
70198;BME280;57582;-34.876;138.628;2024-03-02T04:15:11;101171;;;29.39;35.36
70198;BME280;57582;-34.876;138.628;2024-03-02T04:18:11;101155;;;29.45;34.83
70198;BME280;57582;-34.876;138.628;2024-03-02T04:21:11;101156;;;29.02;35.51
70198;BME280;57582;-34.876;138.628;2024-03-02T04:24:12;101158;;;28.79;36.19
70198;BME280;57582;-34.876;138.628;2024-03-02T04:27:11;101153;;;28.70;35.97
70198;BME280;57582;-34.876;138.628;2024-03-02T04:30:11;101159;;;28.66;36.64
70198;BME280;57582;-34.876;138.628;2024-03-02T04:33:11;101153;;;28.55;36.72
70198;BME280;57582;-34.876;138.628;2024-03-02T04:36:13;101154;;;28.40;37.11
70198;BME280;57582;-34.876;138.628;2024-03-02T04:39:11;101144;;;28.36;38.03
70198;BME280;57582;-34.876;138.628;2024-03-02T04:42:11;101156;;;28.39;37.89
70198;BME280;57582;-34.876;138.628;2024-03-02T04:45:11;101140;;;28.22;38.50
70198;BME280;57582;-34.876;138.628;2024-03-02T04:48:14;101143;;;28.06;38.66
70198;BME280;57582;-34.876;138.628;2024-03-02T04:51:11;101152;;;27.82;38.72
70198;BME280;57582;-34.876;138.628;2024-03-02T04:54:11;101144;;;27.67;39.02
70198;BME280;57582;-34.876;138.628;2024-03-02T04:57:11;101151;;;27.65;38.32
70198;BME280;57582;-34.876;138.628;2024-03-02T05:00:16;101140;;;27.54;38.72
70198;BME280;57582;-34.876;138.628;2024-03-02T05:03:12;101139;;;27.37;38.93
70198;BME280;57582;-34.876;138.628;2024-03-02T05:06:11;101124;;;27.46;39.02
70198;BME280;57582;-34.876;138.628;2024-03-02T05:09:11;101123;;;27.34;39.73
70198;BME280;57582;-34.876;138.628;2024-03-02T05:12:12;101127;;;27.13;40.24
70198;BME280;57582;-34.876;138.628;2024-03-02T05:15:17;101113;;;27.33;39.85
70198;BME280;57582;-34.876;138.628;2024-03-02T05:18:12;101121;;;27.41;39.59
70198;BME280;57582;-34.876;138.628;2024-03-02T05:21:12;101127;;;27.30;39.74
70198;BME280;57582;-34.876;138.628;2024-03-02T05:24:12;101126;;;27.16;40.38
70198;BME280;57582;-34.876;138.628;2024-03-02T05:27:12;101108;;;27.17;40.84
70198;BME280;57582;-34.876;138.628;2024-03-02T05:30:12;101113;;;27.48;40.45
70198;BME280;57582;-34.876;138.628;2024-03-02T05:33:12;101104;;;27.46;40.58
70198;BME280;57582;-34.876;138.628;2024-03-02T05:36:14;101096;;;27.41;40.89
70198;BME280;57582;-34.876;138.628;2024-03-02T05:39:12;101096;;;27.44;40.81
70198;BME280;57582;-34.876;138.628;2024-03-02T05:42:12;101093;;;27.56;40.31
70198;BME280;57582;-34.876;138.628;2024-03-02T05:45:12;101088;;;27.60;39.44
70198;BME280;57582;-34.876;138.628;2024-03-02T05:48:14;101080;;;27.56;40.16
70198;BME280;57582;-34.876;138.628;2024-03-02T05:51:12;101083;;;27.58;40.82
70198;BME280;57582;-34.876;138.628;2024-03-02T05:54:12;101071;;;27.78;40.51
70198;BME280;57582;-34.876;138.628;2024-03-02T05:57:12;101071;;;27.97;40.41
70198;BME280;57582;-34.876;138.628;2024-03-02T06:00:13;101063;;;28.03;39.80
70198;BME280;57582;-34.876;138.628;2024-03-02T06:03:12;101058;;;28.26;39.13
70198;BME280;57582;-34.876;138.628;2024-03-02T06:06:12;101061;;;28.42;38.43
70198;BME280;57582;-34.876;138.628;2024-03-02T06:09:12;101059;;;28.53;37.52
70198;BME280;57582;-34.876;138.628;2024-03-02T06:12:16;101045;;;28.58;36.64
70198;BME280;57582;-34.876;138.628;2024-03-02T06:15:12;101050;;;28.69;36.38
70198;BME280;57582;-34.876;138.628;2024-03-02T06:18:12;101049;;;28.89;35.93
70198;BME280;57582;-34.876;138.628;2024-03-02T06:21:12;101037;;;29.07;35.29
70198;BME280;57582;-34.876;138.628;2024-03-02T06:24:12;101046;;;28.99;34.11
70198;BME280;57582;-34.876;138.628;2024-03-02T06:27:14;101049;;;28.70;34.77
70198;BME280;57582;-34.876;138.628;2024-03-02T06:30:12;101050;;;28.68;34.48
70198;BME280;57582;-34.876;138.628;2024-03-02T06:33:12;101044;;;28.47;34.28
70198;BME280;57582;-34.876;138.628;2024-03-02T06:36:12;101046;;;28.08;35.21
70198;BME280;57582;-34.876;138.628;2024-03-02T06:39:12;101046;;;27.71;35.40
70198;BME280;57582;-34.876;138.628;2024-03-02T06:42:12;101058;;;27.46;36.05
70198;BME280;57582;-34.876;138.628;2024-03-02T06:45:12;101054;;;27.22;36.72
70198;BME280;57582;-34.876;138.628;2024-03-02T06:48:13;101063;;;26.64;37.57
70198;BME280;57582;-34.876;138.628;2024-03-02T06:51:12;101053;;;26.91;37.45
70198;BME280;57582;-34.876;138.628;2024-03-02T06:54:12;101060;;;27.16;37.05
70198;BME280;57582;-34.876;138.628;2024-03-02T06:57:12;101057;;;27.34;36.41
70198;BME280;57582;-34.876;138.628;2024-03-02T07:00:13;101059;;;27.49;35.82
70198;BME280;57582;-34.876;138.628;2024-03-02T07:03:12;101065;;;27.47;35.99
70198;BME280;57582;-34.876;138.628;2024-03-02T07:06:12;101056;;;27.57;36.42
70198;BME280;57582;-34.876;138.628;2024-03-02T07:09:12;101054;;;27.59;36.44
70198;BME280;57582;-34.876;138.628;2024-03-02T07:12:12;101059;;;27.76;36.24
70198;BME280;57582;-34.876;138.628;2024-03-02T07:15:12;101065;;;27.73;35.91
70198;BME280;57582;-34.876;138.628;2024-03-02T07:18:12;101046;;;27.88;35.80
70198;BME280;57582;-34.876;138.628;2024-03-02T07:21:12;101068;;;27.68;35.87
70198;BME280;57582;-34.876;138.628;2024-03-02T07:24:16;101058;;;27.72;35.80
70198;BME280;57582;-34.876;138.628;2024-03-02T07:27:12;101059;;;27.89;36.00
70198;BME280;57582;-34.876;138.628;2024-03-02T07:30:15;101066;;;27.24;36.37
70198;BME280;57582;-34.876;138.628;2024-03-02T07:33:12;101059;;;27.39;36.43
70198;BME280;57582;-34.876;138.628;2024-03-02T07:36:13;101068;;;27.38;36.38
70198;BME280;57582;-34.876;138.628;2024-03-02T07:39:12;101079;;;27.41;36.02
70198;BME280;57582;-34.876;138.628;2024-03-02T07:42:12;101077;;;27.45;35.84
70198;BME280;57582;-34.876;138.628;2024-03-02T07:45:12;101073;;;27.49;35.49
70198;BME280;57582;-34.876;138.628;2024-03-02T07:48:13;101080;;;27.48;35.60
70198;BME280;57582;-34.876;138.628;2024-03-02T07:51:18;101081;;;27.14;35.84
70198;BME280;57582;-34.876;138.628;2024-03-02T07:54:12;101094;;;26.48;36.96
70198;BME280;57582;-34.876;138.628;2024-03-02T07:57:14;101098;;;26.42;37.49
70198;BME280;57582;-34.876;138.628;2024-03-02T08:00:14;101089;;;26.31;37.81
70198;BME280;57582;-34.876;138.628;2024-03-02T08:03:12;101093;;;26.61;37.11
70198;BME280;57582;-34.876;138.628;2024-03-02T08:06:12;101111;;;26.91;36.55
70198;BME280;57582;-34.876;138.628;2024-03-02T08:09:12;101104;;;27.08;36.08
70198;BME280;57582;-34.876;138.628;2024-03-02T08:12:14;101114;;;27.12;35.83
70198;BME280;57582;-34.876;138.628;2024-03-02T08:15:12;101117;;;26.97;36.17
70198;BME280;57582;-34.876;138.628;2024-03-02T08:18:12;101127;;;27.07;35.90
70198;BME280;57582;-34.876;138.628;2024-03-02T08:21:12;101130;;;27.17;35.71
70198;BME280;57582;-34.876;138.628;2024-03-02T08:24:14;101123;;;26.85;35.99
70198;BME280;57582;-34.876;138.628;2024-03-02T08:27:12;101122;;;26.86;36.01
70198;BME280;57582;-34.876;138.628;2024-03-02T08:30:14;101124;;;26.76;36.08
70198;BME280;57582;-34.876;138.628;2024-03-02T08:33:14;101125;;;26.55;36.27
70198;BME280;57582;-34.876;138.628;2024-03-02T08:36:12;101122;;;26.05;37.07
70198;BME280;57582;-34.876;138.628;2024-03-02T08:39:12;101121;;;25.69;37.69
70198;BME280;57582;-34.876;138.628;2024-03-02T08:42:12;101132;;;25.21;38.60
70198;BME280;57582;-34.876;138.628;2024-03-02T08:45:12;101141;;;24.86;39.31
70198;BME280;57582;-34.876;138.628;2024-03-02T08:48:13;101133;;;24.80;39.87
70198;BME280;57582;-34.876;138.628;2024-03-02T08:51:12;101137;;;24.29;41.07
70198;BME280;57582;-34.876;138.628;2024-03-02T08:54:12;101144;;;24.43;41.15
70198;BME280;57582;-34.876;138.628;2024-03-02T08:57:12;101140;;;24.64;40.79
70198;BME280;57582;-34.876;138.628;2024-03-02T09:00:14;101143;;;24.84;40.43
70198;BME280;57582;-34.876;138.628;2024-03-02T09:03:12;101154;;;25.09;40.11
70198;BME280;57582;-34.876;138.628;2024-03-02T09:06:12;101164;;;25.29;39.62
70198;BME280;57582;-34.876;138.628;2024-03-02T09:09:13;101148;;;25.42;39.42
70198;BME280;57582;-34.876;138.628;2024-03-02T09:12:13;101148;;;25.49;39.31
70198;BME280;57582;-34.876;138.628;2024-03-02T09:15:12;101160;;;25.48;39.36
70198;BME280;57582;-34.876;138.628;2024-03-02T09:18:12;101166;;;25.28;39.89
70198;BME280;57582;-34.876;138.628;2024-03-02T09:21:12;101169;;;24.97;40.76
70198;BME280;57582;-34.876;138.628;2024-03-02T09:24:13;101181;;;24.94;40.85
70198;BME280;57582;-34.876;138.628;2024-03-02T09:27:12;101185;;;25.03;41.24
70198;BME280;57582;-34.876;138.628;2024-03-02T09:30:12;101193;;;25.09;40.91
70198;BME280;57582;-34.876;138.628;2024-03-02T09:33:12;101192;;;24.66;41.57
70198;BME280;57582;-34.876;138.628;2024-03-02T09:39:12;101200;;;24.19;42.56
70198;BME280;57582;-34.876;138.628;2024-03-02T09:42:12;101203;;;24.29;42.54
70198;BME280;57582;-34.876;138.628;2024-03-02T09:45:12;101208;;;23.79;43.53
70198;BME280;57582;-34.876;138.628;2024-03-02T09:48:13;101215;;;23.80;43.37
70198;BME280;57582;-34.876;138.628;2024-03-02T09:51:12;101209;;;23.83;43.33
70198;BME280;57582;-34.876;138.628;2024-03-02T09:54:12;101226;;;23.10;44.70
70198;BME280;57582;-34.876;138.628;2024-03-02T09:57:14;101225;;;23.05;44.96
70198;BME280;57582;-34.876;138.628;2024-03-02T10:00:16;101233;;;21.92;47.66
70198;BME280;57582;-34.876;138.628;2024-03-02T10:03:12;101237;;;22.11;47.23
70198;BME280;57582;-34.876;138.628;2024-03-02T10:06:19;101236;;;22.40;46.69
70198;BME280;57582;-34.876;138.628;2024-03-02T10:09:13;101240;;;22.56;46.40
70198;BME280;57582;-34.876;138.628;2024-03-02T10:12:14;101237;;;22.87;45.77
70198;BME280;57582;-34.876;138.628;2024-03-02T10:15:12;101247;;;22.71;46.07
70198;BME280;57582;-34.876;138.628;2024-03-02T10:18:12;101257;;;22.72;46.16
70198;BME280;57582;-34.876;138.628;2024-03-02T10:21:15;101258;;;22.54;46.62
70198;BME280;57582;-34.876;138.628;2024-03-02T10:24:13;101262;;;22.69;46.39
70198;BME280;57582;-34.876;138.628;2024-03-02T10:27:16;101259;;;22.76;46.28
70198;BME280;57582;-34.876;138.628;2024-03-02T10:30:12;101270;;;22.74;46.31
70198;BME280;57582;-34.876;138.628;2024-03-02T10:33:13;101260;;;22.75;46.11
70198;BME280;57582;-34.876;138.628;2024-03-02T10:36:13;101266;;;22.68;46.22
70198;BME280;57582;-34.876;138.628;2024-03-02T10:39:12;101269;;;22.77;45.86
70198;BME280;57582;-34.876;138.628;2024-03-02T10:42:12;101276;;;22.18;47.00
70198;BME280;57582;-34.876;138.628;2024-03-02T10:45:15;101284;;;22.30;46.82
70198;BME280;57582;-34.876;138.628;2024-03-02T10:48:15;101271;;;22.44;46.64
70198;BME280;57582;-34.876;138.628;2024-03-02T10:51:12;101280;;;22.24;46.94
70198;BME280;57582;-34.876;138.628;2024-03-02T10:54:12;101279;;;22.32;46.56
70198;BME280;57582;-34.876;138.628;2024-03-02T10:57:12;101281;;;21.90;47.30
70198;BME280;57582;-34.876;138.628;2024-03-02T11:00:13;101291;;;21.78;47.71
70198;BME280;57582;-34.876;138.628;2024-03-02T11:03:12;101287;;;21.92;47.34
70198;BME280;57582;-34.876;138.628;2024-03-02T11:06:12;101300;;;21.75;47.65
70198;BME280;57582;-34.876;138.628;2024-03-02T11:09:12;101298;;;21.97;47.21
70198;BME280;57582;-34.876;138.628;2024-03-02T11:15:14;101286;;;22.28;46.20
70198;BME280;57582;-34.876;138.628;2024-03-02T11:18:12;101312;;;22.45;46.04
70198;BME280;57582;-34.876;138.628;2024-03-02T11:21:12;101298;;;22.59;45.62
70198;BME280;57582;-34.876;138.628;2024-03-02T11:27:12;101305;;;22.42;45.94
70198;BME280;57582;-34.876;138.628;2024-03-02T11:30:48;101311;;;22.49;45.77
70198;BME280;57582;-34.876;138.628;2024-03-02T11:33:14;101314;;;22.54;45.69
70198;BME280;57582;-34.876;138.628;2024-03-02T11:36:15;101311;;;22.26;46.24
70198;BME280;57582;-34.876;138.628;2024-03-02T11:39:12;101320;;;22.31;46.13
70198;BME280;57582;-34.876;138.628;2024-03-02T11:42:12;101315;;;21.84;47.18
70198;BME280;57582;-34.876;138.628;2024-03-02T11:45:15;101320;;;20.93;49.33
70198;BME280;57582;-34.876;138.628;2024-03-02T11:48:14;101321;;;20.92;49.63
70198;BME280;57582;-34.876;138.628;2024-03-02T11:51:12;101318;;;21.08;49.29
70198;BME280;57582;-34.876;138.628;2024-03-02T11:54:12;101324;;;20.89;49.56
70198;BME280;57582;-34.876;138.628;2024-03-02T11:57:15;101328;;;21.04;49.30
70198;BME280;57582;-34.876;138.628;2024-03-02T12:00:17;101320;;;21.16;49.03
70198;BME280;57582;-34.876;138.628;2024-03-02T12:03:13;101323;;;21.31;48.71
70198;BME280;57582;-34.876;138.628;2024-03-02T12:06:12;101333;;;21.35;48.65
70198;BME280;57582;-34.876;138.628;2024-03-02T12:09:13;101331;;;21.10;49.25
70198;BME280;57582;-34.876;138.628;2024-03-02T12:12:13;101326;;;21.27;48.98
70198;BME280;57582;-34.876;138.628;2024-03-02T12:15:12;101323;;;21.44;48.61
70198;BME280;57582;-34.876;138.628;2024-03-02T12:18:12;101330;;;21.63;48.26
70198;BME280;57582;-34.876;138.628;2024-03-02T12:21:13;101327;;;21.70;48.00
70198;BME280;57582;-34.876;138.628;2024-03-02T12:24:16;101342;;;21.50;48.52
70198;BME280;57582;-34.876;138.628;2024-03-02T12:27:13;101338;;;21.55;48.46
70198;BME280;57582;-34.876;138.628;2024-03-02T12:30:12;101332;;;21.27;49.24
70198;BME280;57582;-34.876;138.628;2024-03-02T12:33:13;101326;;;21.22;49.48
70198;BME280;57582;-34.876;138.628;2024-03-02T12:36:13;101319;;;21.17;49.67
70198;BME280;57582;-34.876;138.628;2024-03-02T12:39:13;101318;;;20.66;50.97
70198;BME280;57582;-34.876;138.628;2024-03-02T12:42:12;101315;;;20.27;52.09
70198;BME280;57582;-34.876;138.628;2024-03-02T12:45:15;101314;;;20.24;52.42
70198;BME280;57582;-34.876;138.628;2024-03-02T12:48:14;101313;;;20.21;52.80
70198;BME280;57582;-34.876;138.628;2024-03-02T12:51:12;101309;;;20.08;52.63
70198;BME280;57582;-34.876;138.628;2024-03-02T12:54:12;101310;;;20.18;52.72
70198;BME280;57582;-34.876;138.628;2024-03-02T12:57:17;101312;;;20.52;52.35
70198;BME280;57582;-34.876;138.628;2024-03-02T13:00:13;101295;;;21.00;51.07
70198;BME280;57582;-34.876;138.628;2024-03-02T13:03:12;101297;;;21.09;49.93
70198;BME280;57582;-34.876;138.628;2024-03-02T13:06:12;101287;;;20.85;50.48
70198;BME280;57582;-34.876;138.628;2024-03-02T13:09:13;101287;;;20.70;50.88
70198;BME280;57582;-34.876;138.628;2024-03-02T13:12:14;101293;;;20.41;51.39
70198;BME280;57582;-34.876;138.628;2024-03-02T13:15:12;101291;;;19.87;52.71
70198;BME280;57582;-34.876;138.628;2024-03-02T13:18:12;101287;;;20.00;52.61
70198;BME280;57582;-34.876;138.628;2024-03-02T13:21:14;101287;;;19.86;52.97
70198;BME280;57582;-34.876;138.628;2024-03-02T13:24:13;101280;;;20.16;52.01
70198;BME280;57582;-34.876;138.628;2024-03-02T13:27:12;101278;;;20.40;51.50
70198;BME280;57582;-34.876;138.628;2024-03-02T13:30:12;101274;;;20.59;50.83
70198;BME280;57582;-34.876;138.628;2024-03-02T13:33:15;101271;;;20.74;50.22
70198;BME280;57582;-34.876;138.628;2024-03-02T13:36:15;101262;;;20.98;49.66
70198;BME280;57582;-34.876;138.628;2024-03-02T13:39:12;101265;;;21.19;48.94
70198;BME280;57582;-34.876;138.628;2024-03-02T13:42:12;101263;;;21.41;48.19
70198;BME280;57582;-34.876;138.628;2024-03-02T13:45:13;101255;;;21.59;47.92
70198;BME280;57582;-34.876;138.628;2024-03-02T13:48:14;101254;;;21.77;47.29
70198;BME280;57582;-34.876;138.628;2024-03-02T13:51:12;101243;;;21.75;47.20
70198;BME280;57582;-34.876;138.628;2024-03-02T13:54:12;101247;;;21.63;47.55
70198;BME280;57582;-34.876;138.628;2024-03-02T13:57:16;101241;;;21.71;47.38
70198;BME280;57582;-34.876;138.628;2024-03-02T14:00:17;101246;;;21.82;47.26
70198;BME280;57582;-34.876;138.628;2024-03-02T14:03:12;101241;;;21.74;47.38
70198;BME280;57582;-34.876;138.628;2024-03-02T14:06:12;101249;;;21.82;47.10
70198;BME280;57582;-34.876;138.628;2024-03-02T14:09:13;101261;;;21.89;46.98
70198;BME280;57582;-34.876;138.628;2024-03-02T14:12:13;101263;;;22.00;47.11
70198;BME280;57582;-34.876;138.628;2024-03-02T14:15:12;101263;;;22.08;46.70
70198;BME280;57582;-34.876;138.628;2024-03-02T14:18:12;101260;;;22.22;46.48
70198;BME280;57582;-34.876;138.628;2024-03-02T14:21:13;101257;;;22.14;46.51
70198;BME280;57582;-34.876;138.628;2024-03-02T14:24:15;101258;;;21.97;46.68
70198;BME280;57582;-34.876;138.628;2024-03-02T14:27:12;101250;;;21.98;46.62
70198;BME280;57582;-34.876;138.628;2024-03-02T14:30:12;101251;;;21.72;47.17
70198;BME280;57582;-34.876;138.628;2024-03-02T14:33:13;101245;;;21.67;47.20
70198;BME280;57582;-34.876;138.628;2024-03-02T14:36:16;101250;;;21.63;47.34
70198;BME280;57582;-34.876;138.628;2024-03-02T14:39:12;101255;;;21.23;48.20
70198;BME280;57582;-34.876;138.628;2024-03-02T14:42:12;101253;;;20.73;49.49
70198;BME280;57582;-34.876;138.628;2024-03-02T14:45:13;101252;;;20.92;49.06
70198;BME280;57582;-34.876;138.628;2024-03-02T14:48:13;101263;;;20.44;50.49
70198;BME280;57582;-34.876;138.628;2024-03-02T14:51:13;101251;;;20.55;50.19
70198;BME280;57582;-34.876;138.628;2024-03-02T14:54:12;101260;;;20.57;50.20
70198;BME280;57582;-34.876;138.628;2024-03-02T14:57:13;101264;;;20.73;49.80
70198;BME280;57582;-34.876;138.628;2024-03-02T15:00:16;101256;;;20.91;49.40
70198;BME280;57582;-34.876;138.628;2024-03-02T15:03:13;101256;;;21.09;48.95
70198;BME280;57582;-34.876;138.628;2024-03-02T15:06:12;101260;;;21.26;48.54
70198;BME280;57582;-34.876;138.628;2024-03-02T15:09:15;101264;;;21.35;48.31
70198;BME280;57582;-34.876;138.628;2024-03-02T15:12:13;101259;;;21.54;47.93
70198;BME280;57582;-34.876;138.628;2024-03-02T15:15:13;101258;;;21.45;48.10
70198;BME280;57582;-34.876;138.628;2024-03-02T15:18:13;101255;;;21.53;47.89
70198;BME280;57582;-34.876;138.628;2024-03-02T15:21:13;101255;;;21.49;48.02
70198;BME280;57582;-34.876;138.628;2024-03-02T15:24:13;101252;;;21.22;48.83
70198;BME280;57582;-34.876;138.628;2024-03-02T15:27:13;101248;;;20.89;49.71
70198;BME280;57582;-34.876;138.628;2024-03-02T15:30:13;101248;;;20.56;50.54
70198;BME280;57582;-34.876;138.628;2024-03-02T15:33:13;101254;;;20.65;50.48
70198;BME280;57582;-34.876;138.628;2024-03-02T15:36:13;101252;;;20.54;50.69
70198;BME280;57582;-34.876;138.628;2024-03-02T15:39:13;101248;;;20.23;51.52
70198;BME280;57582;-34.876;138.628;2024-03-02T15:42:13;101249;;;20.17;51.87
70198;BME280;57582;-34.876;138.628;2024-03-02T15:45:13;101259;;;19.48;53.74
70198;BME280;57582;-34.876;138.628;2024-03-02T15:48:14;101249;;;19.54;53.64
70198;BME280;57582;-34.876;138.628;2024-03-02T15:51:13;101258;;;19.51;53.80
70198;BME280;57582;-34.876;138.628;2024-03-02T15:54:13;101249;;;19.65;53.53
70198;BME280;57582;-34.876;138.628;2024-03-02T15:57:13;101248;;;19.61;53.49